Time;durP1;ratioP1;P1;durP2;ratioP2;P2;SDS_P1;SDS_P2;PMS_P1;PMS_P2;Temp;Humidity;BMP_temperature;BMP_pressure;BME280_temperature;BME280_humidity;BME280_pressure;Samples;Min_cycle;Max_cycle;Signal;HPM_P1;HPM_P2
2023/08/09 00:01:10;;;;;;;0.30;0.17;;;;;;;;;;5018303;28;20147;-63
2023/08/09 00:03:36;;;;;;;0.95;0.50;;;;;;;;;;5014946;28;20129;-63
2023/08/09 00:06:02;;;;;;;0.35;0.20;;;;;;;;;;5015440;28;20519;-63
2023/08/09 00:08:28;;;;;;;0.10;0.10;;;;;;;;;;5016740;28;20038;-63
2023/08/09 00:10:54;;;;;;;1.13;0.20;;;;;;;;;;5019017;28;20407;-63
2023/08/09 00:13:20;;;;;;;0.30;0.20;;;;;;;;;;5018762;28;20057;-63
2023/08/09 00:15:46;;;;;;;0.38;0.30;;;;;;;;;;5015606;28;20199;-63
2023/08/09 00:18:12;;;;;;;0.65;0.20;;;;;;;;;;5015399;28;20048;-63
2023/08/09 00:20:38;;;;;;;0.55;0.30;;;;;;;;;;5024067;28;20037;-63
2023/08/09 00:23:04;;;;;;;0.30;0.20;;;;;;;;;;5017786;28;20503;-63
2023/08/09 00:25:30;;;;;;;0.40;0.20;;;;;;;;;;5018605;28;20041;-63
2023/08/09 00:27:57;;;;;;;0.30;0.22;;;;;;;;;;5015653;28;20038;-63
2023/08/09 00:30:23;;;;;;;0.20;0.20;;;;;;;;;;5014849;28;20046;-63
2023/08/09 00:32:49;;;;;;;0.20;0.20;;;;;;;;;;5017515;28;20204;-63
2023/08/09 00:35:15;;;;;;;0.30;0.28;;;;;;;;;;5018947;28;20503;-63
2023/08/09 00:37:42;;;;;;;0.43;0.30;;;;;;;;;;5018293;28;20049;-63
2023/08/09 00:40:11;;;;;;;0.47;0.25;;;;;;;;;;5015698;28;20434;-63
2023/08/09 00:42:37;;;;;;;0.13;0.13;;;;;;;;;;5015374;28;20037;-63
2023/08/09 00:45:04;;;;;;;0.10;0.10;;;;;;;;;;5016315;28;20268;-64
2023/08/09 00:47:32;;;;;;;0.17;0.17;;;;;;;;;;5018322;28;20115;-63
2023/08/09 00:49:58;;;;;;;0.52;0.30;;;;;;;;;;5018195;28;20184;-63
2023/08/09 00:52:25;;;;;;;0.47;0.40;;;;;;;;;;5017533;28;20041;-63
2023/08/09 00:54:51;;;;;;;0.47;0.30;;;;;;;;;;5018072;28;20435;-63
2023/08/09 00:57:17;;;;;;;0.60;0.30;;;;;;;;;;5016969;28;20068;-63
2023/08/09 00:59:43;;;;;;;0.20;0.20;;;;;;;;;;5018318;28;20064;-63
2023/08/09 01:02:10;;;;;;;1.17;0.43;;;;;;;;;;5018199;28;20814;-63
2023/08/09 01:04:37;;;;;;;0.50;0.30;;;;;;;;;;5015179;28;20498;-63
2023/08/09 01:07:09;;;;;;;0.43;0.32;;;;;;;;;;5014546;28;20057;-63
2023/08/09 01:09:42;;;;;;;0.43;0.35;;;;;;;;;;5017624;28;20116;-63
2023/08/09 01:12:12;;;;;;;0.75;0.50;;;;;;;;;;5017166;28;20049;-64
2023/08/09 01:14:41;;;;;;;0.38;0.10;;;;;;;;;;5015958;28;20071;-63
2023/08/09 01:17:09;;;;;;;0.40;0.20;;;;;;;;;;5014322;28;20570;-63
2023/08/09 01:19:35;;;;;;;0.63;0.38;;;;;;;;;;5014965;28;20039;-63
2023/08/09 01:22:07;;;;;;;0.47;0.47;;;;;;;;;;5017680;28;20034;-63
2023/08/09 01:24:33;;;;;;;;;;;;;;;;;;5018272;28;20041;-63
2023/08/09 01:26:59;;;;;;;1.90;0.30;;;;;;;;;;5014180;28;19921;-63
2023/08/09 01:29:25;;;;;;;0.30;0.20;;;;;;;;;;5014166;28;20041;-64
2023/08/09 01:31:51;;;;;;;0.35;0.15;;;;;;;;;;5016173;28;20049;-64
2023/08/09 01:34:18;;;;;;;1.13;0.20;;;;;;;;;;5017159;28;20045;-63
2023/08/09 01:36:46;;;;;;;0.77;0.30;;;;;;;;;;5017503;28;20041;-63
2023/08/09 01:39:14;;;;;;;0.30;0.30;;;;;;;;;;5014265;28;20400;-63
2023/08/09 01:41:41;;;;;;;0.40;0.32;;;;;;;;;;5013866;28;20045;-63
2023/08/09 01:44:08;;;;;;;0.55;0.25;;;;;;;;;;5016087;28;20056;-63
2023/08/09 01:46:34;;;;;;;0.93;0.55;;;;;;;;;;5016930;28;20068;-63
2023/08/09 01:49:13;;;;;;;0.35;0.20;;;;;;;;;;5016312;28;20392;-63
2023/08/09 01:51:39;;;;;;;0.20;0.20;;;;;;;;;;5013697;28;20040;-63
2023/08/09 01:54:06;;;;;;;0.28;0.22;;;;;;;;;;5013822;28;20066;-63
2023/08/09 01:56:32;;;;;;;1.17;0.28;;;;;;;;;;5015706;28;20038;-63
2023/08/09 01:58:59;;;;;;;0.25;0.25;;;;;;;;;;5018729;28;20045;-63
2023/08/09 02:01:25;;;;;;;0.25;0.25;;;;;;;;;;5015326;28;20488;-63
2023/08/09 02:03:51;;;;;;;0.45;0.30;;;;;;;;;;5016960;28;20084;-63
2023/08/09 02:06:17;;;;;;;0.43;0.38;;;;;;;;;;5016928;28;20041;-63
2023/08/09 02:08:43;;;;;;;0.10;0.10;;;;;;;;;;5013466;28;20057;-63
2023/08/09 02:11:09;;;;;;;0.20;0.20;;;;;;;;;;5013481;28;20054;-63
2023/08/09 02:13:36;;;;;;;0.40;0.30;;;;;;;;;;5014826;28;20496;-63
2023/08/09 02:16:04;;;;;;;0.63;0.30;;;;;;;;;;5016100;28;20100;-63
2023/08/09 02:18:31;;;;;;;2.38;0.60;;;;;;;;;;5016306;28;20081;-63
2023/08/09 02:20:59;;;;;;;0.50;0.38;;;;;;;;;;5013780;28;20042;-63
2023/08/09 02:23:25;;;;;;;0.55;0.20;;;;;;;;;;5012709;28;20575;-63
2023/08/09 02:25:53;;;;;;;0.47;0.30;;;;;;;;;;5015541;28;20045;-63
2023/08/09 02:28:19;;;;;;;0.20;0.20;;;;;;;;;;5016596;28;20072;-63
2023/08/09 02:30:46;;;;;;;0.20;0.20;;;;;;;;;;5015091;28;20681;-63
2023/08/09 02:33:12;;;;;;;0.25;0.22;;;;;;;;;;5013155;28;20038;-63
2023/08/09 02:35:57;;;;;;;0.20;0.20;;;;;;;;;;5013402;28;20071;-63
2023/08/09 02:38:24;;;;;;;0.30;0.30;;;;;;;;;;5010879;28;20046;-63
2023/08/09 02:40:51;;;;;;;0.95;0.68;;;;;;;;;;5013969;28;20033;-63
2023/08/09 02:43:18;;;;;;;0.40;0.30;;;;;;;;;;5016398;28;20041;-63
2023/08/09 02:45:45;;;;;;;0.40;0.30;;;;;;;;;;5016849;28;20122;-63
2023/08/09 02:48:11;;;;;;;0.40;0.30;;;;;;;;;;5014869;28;20069;-63
2023/08/09 02:50:37;;;;;;;0.20;0.20;;;;;;;;;;5013284;28;20042;-63
2023/08/09 02:53:06;;;;;;;0.30;0.25;;;;;;;;;;5013351;28;20132;-63
2023/08/09 02:55:33;;;;;;;0.57;0.40;;;;;;;;;;5016075;28;20515;-63
2023/08/09 02:58:00;;;;;;;0.10;0.10;;;;;;;;;;5015346;28;20056;-63
2023/08/09 03:00:26;;;;;;;0.35;0.20;;;;;;;;;;5013512;28;20049;-63
2023/08/09 03:02:52;;;;;;;1.20;0.50;;;;;;;;;;5011957;28;20471;-63
2023/08/09 03:05:18;;;;;;;0.40;0.30;;;;;;;;;;5013295;28;20278;-63
2023/08/09 03:07:44;;;;;;;0.30;0.20;;;;;;;;;;5014879;28;20757;-63
2023/08/09 03:10:10;;;;;;;0.20;0.20;;;;;;;;;;5015742;28;20056;-63
2023/08/09 03:12:36;;;;;;;0.35;0.30;;;;;;;;;;5013247;28;20515;-63
2023/08/09 03:15:04;;;;;;;0.13;0.13;;;;;;;;;;5012487;28;20042;-63
2023/08/09 03:17:30;;;;;;;0.28;0.28;;;;;;;;;;5013015;28;20511;-63
2023/08/09 03:19:56;;;;;;;0.20;0.20;;;;;;;;;;5014987;28;20041;-63
2023/08/09 03:22:23;;;;;;;0.25;0.25;;;;;;;;;;5014176;28;20088;-63
2023/08/09 03:24:49;;;;;;;0.20;0.20;;;;;;;;;;5013983;28;20458;-63
2023/08/09 03:27:15;;;;;;;0.30;0.20;;;;;;;;;;5017357;28;20103;-63
2023/08/09 03:29:41;;;;;;;0.20;0.20;;;;;;;;;;5015402;28;20112;-63
2023/08/09 03:32:08;;;;;;;0.45;0.30;;;;;;;;;;5012384;28;20041;-63
2023/08/09 03:34:34;;;;;;;0.28;0.20;;;;;;;;;;5012273;28;20040;-63
2023/08/09 03:37:00;;;;;;;0.30;0.20;;;;;;;;;;5014746;28;20061;-63
2023/08/09 03:39:26;;;;;;;0.77;0.28;;;;;;;;;;5015003;28;20044;-63
2023/08/09 03:41:52;;;;;;;0.22;0.20;;;;;;;;;;5015989;28;20124;-63
2023/08/09 03:44:18;;;;;;;0.20;0.20;;;;;;;;;;5013163;28;20061;-63
2023/08/09 03:46:44;;;;;;;0.25;0.20;;;;;;;;;;5012574;28;20046;-63
2023/08/09 03:49:10;;;;;;;1.00;0.55;;;;;;;;;;5014326;28;20076;-63
2023/08/09 03:51:37;;;;;;;0.20;0.20;;;;;;;;;;5015639;28;20048;-63
2023/08/09 03:54:03;;;;;;;0.30;0.30;;;;;;;;;;5014324;28;20069;-63
2023/08/09 03:56:29;;;;;;;0.38;0.30;;;;;;;;;;5012728;28;20090;-63
2023/08/09 03:58:55;;;;;;;0.30;0.30;;;;;;;;;;5012577;28;20053;-63
2023/08/09 04:01:21;;;;;;;0.38;0.22;;;;;;;;;;5013789;28;20053;-63
2023/08/09 04:03:47;;;;;;;0.28;0.20;;;;;;;;;;5015780;28;20131;-63
2023/08/09 04:06:14;;;;;;;0.65;0.32;;;;;;;;;;5014926;28;20049;-63
2023/08/09 04:08:40;;;;;;;1.05;0.38;;;;;;;;;;5014709;28;20049;-63
2023/08/09 04:11:07;;;;;;;1.20;0.30;;;;;;;;;;5015098;28;20048;-63
2023/08/09 04:13:33;;;;;;;0.30;0.30;;;;;;;;;;5013955;28;20057;-63
2023/08/09 04:15:59;;;;;;;0.73;0.40;;;;;;;;;;5015208;28;20042;-63
2023/08/09 04:18:25;;;;;;;1.48;0.30;;;;;;;;;;5015415;28;20455;-63
2023/08/09 04:20:51;;;;;;;0.50;0.50;;;;;;;;;;5019290;28;20582;-63
2023/08/09 04:23:18;;;;;;;0.40;0.32;;;;;;;;;;5018470;28;20240;-63
2023/08/09 04:25:46;;;;;;;0.10;0.10;;;;;;;;;;5017518;28;20037;-63
2023/08/09 04:28:12;;;;;;;0.85;0.20;;;;;;;;;;5015700;28;20411;-63
2023/08/09 04:30:38;;;;;;;0.10;0.10;;;;;;;;;;5015408;28;20045;-63
2023/08/09 04:33:04;;;;;;;0.25;0.20;;;;;;;;;;5018502;28;20033;-63
2023/08/09 04:35:33;;;;;;;1.00;0.35;;;;;;;;;;5018488;28;20092;-63
2023/08/09 04:38:03;;;;;;;0.85;0.30;;;;;;;;;;5016129;28;20111;-63
2023/08/09 04:40:29;;;;;;;1.27;0.40;;;;;;;;;;5015936;28;20040;-63
2023/08/09 04:42:55;;;;;;;0.30;0.20;;;;;;;;;;5015634;28;20038;-63
2023/08/09 04:45:22;;;;;;;0.77;0.50;;;;;;;;;;5014944;28;20041;-63
2023/08/09 04:47:50;;;;;;;0.70;0.50;;;;;;;;;;5014732;28;20049;-63
2023/08/09 04:50:16;;;;;;;0.40;0.30;;;;;;;;;;5014962;28;20645;-63
2023/08/09 04:52:42;;;;;;;1.08;0.30;;;;;;;;;;5015550;28;20042;-63
2023/08/09 04:55:09;;;;;;;0.50;0.20;;;;;;;;;;5015643;28;20067;-63
2023/08/09 04:57:35;;;;;;;1.75;0.20;;;;;;;;;;5017720;28;20049;-63
2023/08/09 05:00:01;;;;;;;0.50;0.30;;;;;;;;;;5017900;28;20113;-63
2023/08/09 05:02:27;;;;;;;0.30;0.20;;;;;;;;;;5016144;28;20128;-63
2023/08/09 05:04:53;;;;;;;0.47;0.30;;;;;;;;;;5014845;28;20042;-63
2023/08/09 05:07:19;;;;;;;1.20;0.40;;;;;;;;;;5015877;28;20041;-63
2023/08/09 05:09:45;;;;;;;0.95;0.20;;;;;;;;;;5018193;28;20695;-63
2023/08/09 05:12:11;;;;;;;0.30;0.22;;;;;;;;;;5017277;28;20054;-63
2023/08/09 05:14:38;;;;;;;0.20;0.20;;;;;;;;;;5015783;28;20053;-63
2023/08/09 05:17:04;;;;;;;0.28;0.28;;;;;;;;;;5013130;28;20042;-63
2023/08/09 05:19:30;;;;;;;0.30;0.30;;;;;;;;;;5014278;28;20518;-63
2023/08/09 05:21:56;;;;;;;0.35;0.30;;;;;;;;;;5018179;28;20128;-63
2023/08/09 05:24:22;;;;;;;0.20;0.20;;;;;;;;;;5018921;28;20464;-63
2023/08/09 05:26:48;;;;;;;0.28;0.15;;;;;;;;;;5015457;28;20053;-63
2023/08/09 05:29:14;;;;;;;0.47;0.30;;;;;;;;;;5014814;28;20041;-63
2023/08/09 05:31:40;;;;;;;0.10;0.10;;;;;;;;;;5015000;28;20042;-63
2023/08/09 05:34:06;;;;;;;0.95;0.43;;;;;;;;;;5016895;28;20483;-63
2023/08/09 05:36:32;;;;;;;0.20;0.13;;;;;;;;;;5017905;28;20051;-63
2023/08/09 05:38:58;;;;;;;0.35;0.20;;;;;;;;;;5013949;28;20048;-63
2023/08/09 05:41:24;;;;;;;0.10;0.10;;;;;;;;;;5014167;28;20128;-63
2023/08/09 05:43:50;;;;;;;0.10;0.10;;;;;;;;;;5014807;28;20129;-63
2023/08/09 05:46:16;;;;;;;0.30;0.20;;;;;;;;;;5016847;28;20037;-63
2023/08/09 05:48:42;;;;;;;0.17;0.10;;;;;;;;;;5017439;28;20103;-63
2023/08/09 05:51:08;;;;;;;0.20;0.00;;;;;;;;;;5015814;28;20458;-63
2023/08/09 05:53:34;;;;;;;0.00;0.00;;;;;;;;;;5013349;28;20054;-63
2023/08/09 05:56:00;;;;;;;0.03;0.03;;;;;;;;;;5014017;28;20053;-63
2023/08/09 05:58:26;;;;;;;0.03;0.03;;;;;;;;;;5016669;28;20507;-63
2023/08/09 06:00:52;;;;;;;0.00;0.00;;;;;;;;;;5017164;28;20045;-63
2023/08/09 06:03:18;;;;;;;0.10;0.10;;;;;;;;;;5015920;28;20081;-63
2023/08/09 06:05:44;;;;;;;0.15;0.15;;;;;;;;;;5013974;28;20077;-63
2023/08/09 06:08:10;;;;;;;0.10;0.10;;;;;;;;;;5013463;28;20903;-63
2023/08/09 06:10:37;;;;;;;0.47;0.10;;;;;;;;;;5016545;28;20128;-63
2023/08/09 06:13:03;;;;;;;0.10;0.10;;;;;;;;;;5016605;28;20092;-63
2023/08/09 06:15:29;;;;;;;0.15;0.13;;;;;;;;;;5014800;28;20110;-63
2023/08/09 06:17:55;;;;;;;0.10;0.10;;;;;;;;;;5012026;28;20046;-63
2023/08/09 06:20:21;;;;;;;0.35;0.10;;;;;;;;;;5013934;28;20030;-63
2023/08/09 06:22:48;;;;;;;0.40;0.20;;;;;;;;;;5015502;28;20045;-63
2023/08/09 06:25:14;;;;;;;0.00;0.00;;;;;;;;;;5015318;28;20045;-63
2023/08/09 06:27:40;;;;;;;0.30;0.13;;;;;;;;;;5015607;28;20458;-63
2023/08/09 06:30:07;;;;;;;0.10;0.10;;;;;;;;;;5012833;28;20765;-63
2023/08/09 06:32:33;;;;;;;0.17;0.10;;;;;;;;;;5013764;28;20033;-63
2023/08/09 06:34:59;;;;;;;0.10;0.10;;;;;;;;;;5015639;28;20045;-63
2023/08/09 06:37:25;;;;;;;0.13;0.10;;;;;;;;;;5014926;28;20121;-64
2023/08/09 06:39:51;;;;;;;0.80;0.32;;;;;;;;;;5015969;28;20073;-63
2023/08/09 06:42:17;;;;;;;1.17;0.45;;;;;;;;;;5012055;28;20101;-63
2023/08/09 06:44:43;;;;;;;0.47;0.25;;;;;;;;;;5013176;28;20105;-63
2023/08/09 06:47:11;;;;;;;0.47;0.30;;;;;;;;;;5014996;28;20049;-63
2023/08/09 06:49:37;;;;;;;0.28;0.20;;;;;;;;;;5015858;28;20041;-63
2023/08/09 06:52:03;;;;;;;0.60;0.20;;;;;;;;;;5015495;28;20107;-63
2023/08/09 06:54:29;;;;;;;0.30;0.20;;;;;;;;;;5012652;28;20127;-63
2023/08/09 06:56:55;;;;;;;0.85;0.25;;;;;;;;;;5012302;28;20503;-64
2023/08/09 06:59:21;;;;;;;0.47;0.30;;;;;;;;;;5015262;28;20037;-63
2023/08/09 07:01:48;;;;;;;0.35;0.30;;;;;;;;;;5016588;28;20100;-63
2023/08/09 07:04:15;;;;;;;0.40;0.30;;;;;;;;;;5015254;28;21151;-63
2023/08/09 07:06:41;;;;;;;0.20;0.20;;;;;;;;;;5013483;28;20486;-63
2023/08/09 07:09:07;;;;;;;0.40;0.25;;;;;;;;;;5013580;28;20045;-63
2023/08/09 07:11:33;;;;;;;0.32;0.30;;;;;;;;;;5014797;28;20060;-63
2023/08/09 07:14:00;;;;;;;0.20;0.20;;;;;;;;;;5016132;28;20120;-63
2023/08/09 07:16:26;;;;;;;0.25;0.25;;;;;;;;;;5015723;28;20092;-63
2023/08/09 07:18:52;;;;;;;0.77;0.30;;;;;;;;;;5012634;28;20057;-63
2023/08/09 07:21:18;;;;;;;1.20;0.50;;;;;;;;;;5012489;28;20072;-63
2023/08/09 07:23:44;;;;;;;1.02;0.45;;;;;;;;;;5014501;28;20435;-63
2023/08/09 07:26:10;;;;;;;1.10;0.30;;;;;;;;;;5015089;28;20041;-63
2023/08/09 07:28:36;;;;;;;0.75;0.43;;;;;;;;;;5015566;28;20036;-63
2023/08/09 07:31:02;;;;;;;0.85;0.43;;;;;;;;;;5013097;28;20148;-63
2023/08/09 07:33:28;;;;;;;0.85;0.40;;;;;;;;;;5012615;28;20034;-63
2023/08/09 07:35:54;;;;;;;0.30;0.30;;;;;;;;;;5014440;28;20647;-63
2023/08/09 07:38:20;;;;;;;0.52;0.22;;;;;;;;;;5016048;28;20048;-63
2023/08/09 07:40:46;;;;;;;0.17;0.17;;;;;;;;;;5015359;28;20116;-63
2023/08/09 07:43:12;;;;;;;0.40;0.10;;;;;;;;;;5015325;28;20117;-63
2023/08/09 07:45:42;;;;;;;0.20;0.20;;;;;;;;;;5015254;28;20703;-63
2023/08/09 07:48:08;;;;;;;0.10;0.10;;;;;;;;;;5007340;28;20484;-63
2023/08/09 07:50:34;;;;;;;0.22;0.22;;;;;;;;;;5019228;28;20037;-63
2023/08/09 07:53:00;;;;;;;0.70;0.40;;;;;;;;;;5018923;28;20156;-64
2023/08/09 07:55:26;;;;;;;0.52;0.40;;;;;;;;;;5015954;28;20133;-63
2023/08/09 07:57:52;;;;;;;4.40;0.63;;;;;;;;;;5016545;28;20054;-64
2023/08/09 08:00:18;;;;;;;1.70;0.63;;;;;;;;;;5016720;28;20491;-63
2023/08/09 08:02:46;;;;;;;0.85;0.45;;;;;;;;;;5019183;28;20041;-63
2023/08/09 08:05:13;;;;;;;2.55;0.50;;;;;;;;;;5018915;28;20497;-63
2023/08/09 08:07:39;;;;;;;1.95;0.50;;;;;;;;;;5015639;28;20603;-63
2023/08/09 08:10:08;;;;;;;0.40;0.38;;;;;;;;;;5015580;28;20053;-63
2023/08/09 08:12:35;;;;;;;1.88;0.52;;;;;;;;;;5018182;28;20521;-63
2023/08/09 08:15:01;;;;;;;0.45;0.40;;;;;;;;;;5018380;28;20041;-63
2023/08/09 08:17:27;;;;;;;0.65;0.30;;;;;;;;;;5018595;28;20132;-63
2023/08/09 08:19:53;;;;;;;0.38;0.30;;;;;;;;;;5016441;28;20052;-63
2023/08/09 08:22:19;;;;;;;0.57;0.22;;;;;;;;;;5020431;28;20037;-63
2023/08/09 08:24:45;;;;;;;1.17;0.77;;;;;;;;;;5018640;28;20045;-63
2023/08/09 08:27:12;;;;;;;0.40;0.32;;;;;;;;;;5018624;28;20045;-63
2023/08/09 08:29:38;;;;;;;0.55;0.35;;;;;;;;;;5018100;28;20037;-63
2023/08/09 08:32:05;;;;;;;1.35;0.30;;;;;;;;;;5015406;28;20042;-63
2023/08/09 08:34:31;;;;;;;0.20;0.10;;;;;;;;;;5015587;28;20056;-63
2023/08/09 08:37:00;;;;;;;0.93;0.40;;;;;;;;;;5016781;28;20046;-64
2023/08/09 08:39:28;;;;;;;1.38;0.63;;;;;;;;;;5018380;28;20034;-63
2023/08/09 08:41:56;;;;;;;1.05;0.43;;;;;;;;;;5019131;28;20045;-63
2023/08/09 08:44:24;;;;;;;0.32;0.25;;;;;;;;;;5017336;28;20037;-63
2023/08/09 08:46:51;;;;;;;1.83;0.50;;;;;;;;;;5017653;28;20046;-63
2023/08/09 08:49:19;;;;;;;0.63;0.28;;;;;;;;;;5023197;28;20116;-63
2023/08/09 08:51:47;;;;;;;0.20;0.20;;;;;;;;;;5015482;28;20046;-63
2023/08/09 08:54:15;;;;;;;0.90;0.40;;;;;;;;;;5016662;28;20062;-63
2023/08/09 08:56:41;;;;;;;0.75;0.38;;;;;;;;;;5017615;28;20488;-63
2023/08/09 08:59:08;;;;;;;1.75;0.40;;;;;;;;;;5018049;28;20052;-63
2023/08/09 09:01:34;;;;;;;1.20;0.30;;;;;;;;;;5013767;28;20046;-63
2023/08/09 09:04:01;;;;;;;0.50;0.50;;;;;;;;;;5014702;28;20415;-63
2023/08/09 09:06:27;;;;;;;0.30;0.20;;;;;;;;;;5016682;28;20038;-63
2023/08/09 09:08:59;;;;;;;0.70;0.40;;;;;;;;;;5018808;28;20128;-63
2023/08/09 09:11:25;;;;;;;0.65;0.22;;;;;;;;;;5016509;28;20045;-63
2023/08/09 09:13:52;;;;;;;0.50;0.20;;;;;;;;;;5015463;28;20057;-63
2023/08/09 09:16:18;;;;;;;0.57;0.40;;;;;;;;;;5014866;28;20080;-63
2023/08/09 09:18:46;;;;;;;0.30;0.28;;;;;;;;;;5016525;28;20074;-64
2023/08/09 09:21:13;;;;;;;0.30;0.30;;;;;;;;;;5017754;28;20045;-64
2023/08/09 09:23:40;;;;;;;0.28;0.28;;;;;;;;;;5016629;28;20045;-64
2023/08/09 09:26:15;;;;;;;1.08;0.30;;;;;;;;;;5013754;28;20034;-64
2023/08/09 09:28:43;;;;;;;0.38;0.35;;;;;;;;;;5015041;28;20038;-63
2023/08/09 09:31:10;;;;;;;0.40;0.30;;;;;;;;;;5016514;28;20522;-63
2023/08/09 09:33:37;;;;;;;0.57;0.32;;;;;;;;;;5017437;28;20503;-63
2023/08/09 09:36:04;;;;;;;0.08;0.08;;;;;;;;;;5014767;28;20045;-63
2023/08/09 09:38:30;;;;;;;0.30;0.30;;;;;;;;;;5014003;28;20050;-63
2023/08/09 09:40:57;;;;;;;0.30;0.20;;;;;;;;;;5015605;28;20050;-63
2023/08/09 09:43:26;;;;;;;0.40;0.40;;;;;;;;;;5017964;28;20041;-63
2023/08/09 09:45:56;;;;;;;0.28;0.20;;;;;;;;;;5017293;28;20479;-63
2023/08/09 09:48:24;;;;;;;1.08;0.30;;;;;;;;;;5017898;28;20064;-63
2023/08/09 09:50:50;;;;;;;0.77;0.40;;;;;;;;;;5017299;28;20068;-63
2023/08/09 09:53:17;;;;;;;0.55;0.30;;;;;;;;;;5014514;28;20049;-63
2023/08/09 09:55:43;;;;;;;0.52;0.30;;;;;;;;;;5014209;28;20119;-63
2023/08/09 09:58:12;;;;;;;1.50;0.50;;;;;;;;;;5014027;28;20042;-63
2023/08/09 10:00:38;;;;;;;0.50;0.40;;;;;;;;;;5013416;28;20118;-63
2023/08/09 10:03:04;;;;;;;0.68;0.30;;;;;;;;;;5014374;28;20041;-63
2023/08/09 10:05:36;;;;;;;0.57;0.45;;;;;;;;;;5016321;28;20092;-64
2023/08/09 10:08:07;;;;;;;0.30;0.28;;;;;;;;;;5016681;28;20045;-63
2023/08/09 10:10:33;;;;;;;0.45;0.38;;;;;;;;;;5014981;28;20515;-64
2023/08/09 10:13:01;;;;;;;0.75;0.40;;;;;;;;;;5013272;28;20056;-64
2023/08/09 10:15:33;;;;;;;0.47;0.32;;;;;;;;;;5013843;28;20092;-63
2023/08/09 10:18:03;;;;;;;0.50;0.50;;;;;;;;;;5017211;28;20498;-64
2023/08/09 10:20:30;;;;;;;1.95;0.63;;;;;;;;;;5015913;28;20045;-64
2023/08/09 10:22:59;;;;;;;1.08;0.63;;;;;;;;;;5013933;28;20042;-64
2023/08/09 10:25:44;;;;;;;0.93;0.50;;;;;;;;;;5013345;28;20046;-63
2023/08/09 10:28:10;;;;;;;0.98;0.50;;;;;;;;;;5012694;28;20045;-63
2023/08/09 10:30:47;;;;;;;1.55;0.80;;;;;;;;;;5013118;28;20472;-64
2023/08/09 10:33:20;;;;;;;0.32;0.32;;;;;;;;;;5013245;28;20038;-64
2023/08/09 10:35:54;;;;;;;1.13;0.30;;;;;;;;;;5013091;28;20041;-63
2023/08/09 10:38:21;;;;;;;1.65;0.50;;;;;;;;;;5016073;28;20059;-63
2023/08/09 10:40:53;;;;;;;0.30;0.22;;;;;;;;;;5016488;28;20041;-63
2023/08/09 10:43:23;;;;;;;3.15;0.63;;;;;;;;;;5012383;28;20501;-63
2023/08/09 10:45:50;;;;;;;1.05;0.40;;;;;;;;;;5012911;28;20045;-63
2023/08/09 10:48:17;;;;;;;0.30;0.30;;;;;;;;;;5015768;28;20098;-63
2023/08/09 10:50:44;;;;;;;1.02;0.50;;;;;;;;;;5015615;28;20507;-63
2023/08/09 10:53:10;;;;;;;0.60;0.40;;;;;;;;;;5014708;28;20048;-63
2023/08/09 10:55:36;;;;;;;0.55;0.50;;;;;;;;;;5012620;28;20042;-63
2023/08/09 10:58:02;;;;;;;0.82;0.60;;;;;;;;;;5012904;28;20046;-63
2023/08/09 11:00:41;;;;;;;1.17;0.60;;;;;;;;;;5016270;28;20103;-63
2023/08/09 11:03:08;;;;;;;0.50;0.40;;;;;;;;;;5015758;28;20127;-63
2023/08/09 11:05:34;;;;;;;0.50;0.50;;;;;;;;;;5012892;28;20048;-63
2023/08/09 11:08:09;;;;;;;0.65;0.57;;;;;;;;;;5012869;28;20045;-63
2023/08/09 11:10:36;;;;;;;1.30;0.70;;;;;;;;;;5014490;28;20054;-63
2023/08/09 11:13:04;;;;;;;0.35;0.35;;;;;;;;;;5014880;28;20076;-63
2023/08/09 11:15:31;;;;;;;0.50;0.30;;;;;;;;;;5015018;28;20538;-63
2023/08/09 11:17:57;;;;;;;1.52;0.30;;;;;;;;;;5012136;28;20100;-63
2023/08/09 11:20:23;;;;;;;0.50;0.20;;;;;;;;;;5013092;28;20041;-63
2023/08/09 11:22:56;;;;;;;0.40;0.40;;;;;;;;;;5015540;28;20069;-63
2023/08/09 11:25:23;;;;;;;0.55;0.40;;;;;;;;;;5015246;28;20044;-63
2023/08/09 11:27:53;;;;;;;0.40;0.30;;;;;;;;;;5013827;28;20046;-63
2023/08/09 11:30:19;;;;;;;0.73;0.45;;;;;;;;;;5012543;28;20048;-63
2023/08/09 11:32:45;;;;;;;0.45;0.40;;;;;;;;;;5012267;28;20077;-63
2023/08/09 11:35:11;;;;;;;0.30;0.15;;;;;;;;;;5012269;28;20076;-64
2023/08/09 11:37:37;;;;;;;0.20;0.20;;;;;;;;;;5012480;28;20146;-64
2023/08/09 11:40:04;;;;;;;0.50;0.30;;;;;;;;;;5014089;28;20532;-63
2023/08/09 11:42:30;;;;;;;0.50;0.45;;;;;;;;;;5018591;28;20033;-63
2023/08/09 11:44:56;;;;;;;0.22;0.20;;;;;;;;;;5013200;28;20145;-63
2023/08/09 11:47:26;;;;;;;0.40;0.20;;;;;;;;;;5016158;28;20076;-63
2023/08/09 11:49:52;;;;;;;0.77;0.43;;;;;;;;;;5016021;28;20475;-63
2023/08/09 11:52:18;;;;;;;0.47;0.35;;;;;;;;;;5012520;28;20135;-63
2023/08/09 11:54:44;;;;;;;0.57;0.30;;;;;;;;;;5012545;28;20663;-63
2023/08/09 11:57:10;;;;;;;1.13;0.55;;;;;;;;;;5013162;28;20061;-63
2023/08/09 11:59:38;;;;;;;0.75;0.50;;;;;;;;;;5015002;28;20125;-63
2023/08/09 12:02:06;;;;;;;0.43;0.35;;;;;;;;;;5015502;28;20049;-63
2023/08/09 12:04:32;;;;;;;0.40;0.40;;;;;;;;;;5012589;28;20042;-63
2023/08/09 12:07:01;;;;;;;0.40;0.40;;;;;;;;;;5011790;28;20042;-63
2023/08/09 12:09:30;;;;;;;0.30;0.30;;;;;;;;;;5013602;28;20042;-63
2023/08/09 12:12:06;;;;;;;0.38;0.30;;;;;;;;;;5015560;28;20439;-63
2023/08/09 12:14:33;;;;;;;0.30;0.30;;;;;;;;;;5013363;28;20073;-63
2023/08/09 12:16:59;;;;;;;0.30;0.28;;;;;;;;;;5011914;28;20488;-64
2023/08/09 12:19:26;;;;;;;0.65;0.30;;;;;;;;;;5011048;28;20073;-64
2023/08/09 12:21:52;;;;;;;1.45;0.40;;;;;;;;;;5015281;28;20037;-64
2023/08/09 12:24:18;;;;;;;0.38;0.38;;;;;;;;;;5014814;28;20073;-64
2023/08/09 12:26:44;;;;;;;0.50;0.30;;;;;;;;;;5013747;28;20042;-64
2023/08/09 12:29:11;;;;;;;0.55;0.40;;;;;;;;;;5011386;28;20054;-64
2023/08/09 12:31:37;;;;;;;1.95;0.50;;;;;;;;;;5011789;28;20459;-64
2023/08/09 12:34:04;;;;;;;0.93;0.47;;;;;;;;;;5013765;28;20470;-64
2023/08/09 12:36:30;;;;;;;0.77;0.40;;;;;;;;;;5018094;28;20045;-64
2023/08/09 12:38:57;;;;;;;1.27;0.63;;;;;;;;;;5017500;28;20037;-64
2023/08/09 12:41:24;;;;;;;0.47;0.47;;;;;;;;;;5015306;28;20042;-64
2023/08/09 12:43:50;;;;;;;2.30;0.55;;;;;;;;;;5015618;28;20416;-64
2023/08/09 12:46:16;;;;;;;2.00;0.68;;;;;;;;;;5017959;28;20041;-63
2023/08/09 12:48:42;;;;;;;0.77;0.52;;;;;;;;;;5017986;28;20052;-63
2023/08/09 12:51:08;;;;;;;2.03;0.50;;;;;;;;;;5015002;28;20045;-63
2023/08/09 12:53:34;;;;;;;0.60;0.60;;;;;;;;;;5014699;28;20077;-63
2023/08/09 12:56:00;;;;;;;1.48;0.77;;;;;;;;;;5014345;28;20054;-64
2023/08/09 12:58:26;;;;;;;1.52;0.80;;;;;;;;;;5018444;28;20052;-64
2023/08/09 13:00:53;;;;;;;1.55;0.80;;;;;;;;;;5018694;28;20136;-63
2023/08/09 13:03:19;;;;;;;2.83;0.70;;;;;;;;;;5016316;28;20041;-63
2023/08/09 13:05:45;;;;;;;1.40;1.00;;;;;;;;;;5015188;28;20050;-63
2023/08/09 13:08:11;;;;;;;1.58;0.88;;;;;;;;;;5014595;28;20050;-63
2023/08/09 13:10:37;;;;;;;1.90;0.95;;;;;;;;;;5017002;28;20709;-63
2023/08/09 13:13:04;;;;;;;2.00;0.95;;;;;;;;;;5017917;28;20041;-63
2023/08/09 13:15:30;;;;;;;1.83;0.82;;;;;;;;;;5016923;28;20095;-63
2023/08/09 13:17:56;;;;;;;2.17;0.90;;;;;;;;;;5014808;28;20038;-64
2023/08/09 13:20:24;;;;;;;2.05;0.93;;;;;;;;;;5014628;28;20041;-64
2023/08/09 13:22:51;;;;;;;1.08;0.77;;;;;;;;;;5017795;28;20120;-64
2023/08/09 13:25:17;;;;;;;3.72;1.05;;;;;;;;;;5017369;28;20561;-64
2023/08/09 13:27:43;;;;;;;1.70;0.90;;;;;;;;;;5017517;28;20687;-64
2023/08/09 13:30:09;;;;;;;8.02;1.15;;;;;;;;;;5014880;28;20064;-64
2023/08/09 13:32:36;;;;;;;0.73;0.50;;;;;;;;;;5013998;28;20668;-63
2023/08/09 13:35:04;;;;;;;1.55;0.65;;;;;;;;;;5016990;28;20503;-63
2023/08/09 13:37:30;;;;;;;1.73;0.88;;;;;;;;;;5016827;28;20064;-64
2023/08/09 13:39:56;;;;;;;2.05;0.73;;;;;;;;;;5016968;28;20067;-64
2023/08/09 13:42:23;;;;;;;2.20;0.75;;;;;;;;;;5014666;28;20037;-64
2023/08/09 13:44:49;;;;;;;1.17;0.80;;;;;;;;;;5014064;28;20718;-64
2023/08/09 13:47:15;;;;;;;1.38;0.73;;;;;;;;;;5016203;28;20071;-64
2023/08/09 13:49:41;;;;;;;1.88;0.50;;;;;;;;;;5017195;28;20041;-64
2023/08/09 13:52:10;;;;;;;0.95;0.40;;;;;;;;;;5015014;28;20042;-64
2023/08/09 13:54:36;;;;;;;1.33;0.60;;;;;;;;;;5013881;28;20054;-64
2023/08/09 13:57:02;;;;;;;1.15;0.68;;;;;;;;;;5013918;28;20168;-64
2023/08/09 13:59:28;;;;;;;3.25;0.60;;;;;;;;;;5016570;28;20530;-64
2023/08/09 14:01:54;;;;;;;1.15;0.70;;;;;;;;;;5017723;28;20742;-64
2023/08/09 14:04:21;;;;;;;2.30;0.65;;;;;;;;;;5015450;28;20045;-63
2023/08/09 14:06:47;;;;;;;0.68;0.47;;;;;;;;;;5013196;28;20042;-63
2023/08/09 14:09:13;;;;;;;0.95;0.40;;;;;;;;;;5013526;28;20041;-63
2023/08/09 14:11:39;;;;;;;0.88;0.50;;;;;;;;;;5016672;28;20066;-63
2023/08/09 14:14:05;;;;;;;1.08;0.60;;;;;;;;;;5015752;28;20443;-63
2023/08/09 14:16:31;;;;;;;0.68;0.50;;;;;;;;;;5015343;28;20402;-63
2023/08/09 14:18:58;;;;;;;0.75;0.40;;;;;;;;;;5014110;28;20104;-63
2023/08/09 14:21:24;;;;;;;1.05;0.50;;;;;;;;;;5013377;28;20041;-63
2023/08/09 14:23:50;;;;;;;0.50;0.40;;;;;;;;;;5016136;28;20056;-64
2023/08/09 14:26:16;;;;;;;0.65;0.40;;;;;;;;;;5016424;28;20395;-64
2023/08/09 14:28:42;;;;;;;0.52;0.40;;;;;;;;;;5015368;28;20094;-64
2023/08/09 14:31:08;;;;;;;1.85;0.45;;;;;;;;;;5013351;28;20124;-64
2023/08/09 14:33:34;;;;;;;1.58;0.55;;;;;;;;;;5012895;28;20098;-64
2023/08/09 14:36:00;;;;;;;0.95;0.47;;;;;;;;;;5016040;28;20042;-64
2023/08/09 14:38:26;;;;;;;0.30;0.30;;;;;;;;;;5016680;28;20038;-64
2023/08/09 14:40:54;;;;;;;1.75;0.55;;;;;;;;;;5014796;28;20144;-64